createdAt,value
2023-05-02T00:02:32.782Z,100341.41
2023-05-02T00:05:35.757Z,100345.09
2023-05-02T00:08:40.447Z,100344.34
2023-05-02T00:11:43.183Z,100347.13
2023-05-02T00:14:45.969Z,100349.06
2023-05-02T00:17:48.708Z,100350.94
2023-05-02T00:20:51.740Z,100348.25
2023-05-02T00:23:57.097Z,100358.13
2023-05-02T00:26:59.823Z,100353.59
2023-05-02T00:30:03.138Z,100347.28
2023-05-02T00:33:07.091Z,100355.34
2023-05-02T00:36:14.961Z,100350.06
2023-05-02T00:39:19.009Z,100351.97
2023-05-02T00:42:21.852Z,100355.56
2023-05-02T00:45:24.700Z,100351.91
2023-05-02T00:48:27.995Z,100344.00
2023-05-02T00:51:30.701Z,100350.44
2023-05-02T00:54:34.861Z,100350.44
2023-05-02T00:57:37.580Z,100353.16
2023-05-02T01:01:02.482Z,100349.69
2023-05-02T01:04:18.904Z,100347.88
2023-05-02T01:07:37.218Z,100353.22
2023-05-02T01:10:50.937Z,100361.34
2023-05-02T01:13:56.582Z,100359.66
2023-05-02T01:17:04.398Z,100378.81
2023-05-02T01:20:11.361Z,100370.59
2023-05-02T01:23:22.484Z,100375.16
2023-05-02T01:26:33.754Z,100384.00
2023-05-02T01:29:40.219Z,100390.53
2023-05-02T01:32:46.542Z,100383.34
2023-05-02T01:35:52.617Z,100386.13
2023-05-02T01:38:56.554Z,100396.31
2023-05-02T01:42:03.639Z,100393.59
2023-05-02T01:45:10.437Z,100397.72
2023-05-02T01:48:14.665Z,100406.00
2023-05-02T01:51:19.923Z,100399.91
2023-05-02T01:54:25.877Z,100403.78
2023-05-02T01:57:28.633Z,100410.22
2023-05-02T02:00:34.782Z,100420.03
2023-05-02T02:03:37.773Z,100414.69
2023-05-02T02:06:43.612Z,100425.00
2023-05-02T02:09:46.312Z,100430.53
2023-05-02T02:12:53.516Z,100434.34
2023-05-02T02:16:03.253Z,100432.56
2023-05-02T02:19:09.195Z,100438.00
2023-05-02T02:22:15.150Z,100436.22
2023-05-02T02:25:19.752Z,100440.84
2023-05-02T02:28:22.506Z,100441.59
2023-05-02T02:31:32.069Z,100443.53
2023-05-02T02:34:34.866Z,100447.06
2023-05-02T02:37:42.148Z,100447.91
2023-05-02T02:40:51.228Z,100451.31
2023-05-02T02:44:03.139Z,100457.63
2023-05-02T02:47:12.807Z,100458.41
2023-05-02T02:50:20.721Z,100457.63
2023-05-02T02:53:33.604Z,100465.97
2023-05-02T02:56:40.365Z,100470.56
2023-05-02T02:59:51.287Z,100472.75
2023-05-02T03:02:56.629Z,100478.44
2023-05-02T03:06:00.721Z,100477.75
2023-05-02T03:09:04.216Z,100479.69
2023-05-02T03:12:06.933Z,100485.50
2023-05-02T03:15:41.990Z,100483.94
2023-05-02T03:18:46.116Z,100489.69
2023-05-02T03:21:49.169Z,100494.38
2023-05-02T03:24:52.261Z,100499.13
2023-05-02T03:27:54.951Z,100494.78
2023-05-02T03:30:58.037Z,100502.19
2023-05-02T03:34:02.200Z,100505.09
2023-05-02T03:37:05.128Z,100503.44
2023-05-02T03:40:09.220Z,100505.31
2023-05-02T03:43:12.648Z,100510.88
2023-05-02T03:46:15.352Z,100516.28
2023-05-02T03:49:19.892Z,100520.81
2023-05-02T03:52:24.686Z,100528.34
2023-05-02T03:55:28.400Z,100527.66
2023-05-02T03:58:31.124Z,100526.09
2023-05-02T04:01:34.385Z,100539.88
2023-05-02T04:04:38.928Z,100533.25
2023-05-02T04:07:41.639Z,100544.69
2023-05-02T04:10:44.533Z,100553.13
2023-05-02T04:13:47.216Z,100555.03
2023-05-02T04:16:50.372Z,100560.44
2023-05-02T04:19:54.533Z,100561.28
2023-05-02T04:22:57.316Z,100565.69
2023-05-02T04:25:59.976Z,100567.28
2023-05-02T04:29:02.706Z,100579.63
2023-05-02T04:32:06.085Z,100583.81
2023-05-02T04:35:11.000Z,100590.00
2023-05-02T04:38:13.736Z,100590.59
2023-05-02T04:41:17.625Z,100601.06
2023-05-02T04:44:20.372Z,100601.72
2023-05-02T04:47:23.099Z,100606.81
2023-05-02T04:50:28.201Z,100609.34
2023-05-02T04:53:30.969Z,100612.72
2023-05-02T04:56:33.674Z,100616.22
2023-05-02T04:59:36.348Z,100620.59
2023-05-02T05:02:40.445Z,100623.97
2023-05-02T05:05:44.897Z,100629.03
2023-05-02T05:08:47.657Z,100634.19
2023-05-02T05:11:50.402Z,100632.94
2023-05-02T05:14:53.106Z,100632.72
2023-05-02T05:17:55.892Z,100637.63
2023-05-02T05:20:59.994Z,100643.56
2023-05-02T05:24:02.697Z,100650.28
2023-05-02T05:27:05.431Z,100641.03
2023-05-02T05:30:09.927Z,100642.28
2023-05-02T05:33:13.233Z,100648.59
2023-05-02T05:36:17.412Z,100667.59
2023-05-02T05:39:20.108Z,100678.38
2023-05-02T05:42:22.808Z,100671.94
2023-05-02T05:45:25.608Z,100675.44
2023-05-02T05:48:28.306Z,100687.75
2023-05-02T05:51:32.401Z,100684.09
2023-05-02T05:54:35.124Z,100700.09
2023-05-02T05:57:37.837Z,100700.91
2023-05-02T06:00:42.826Z,100693.28
2023-05-02T06:03:46.121Z,100702.91
2023-05-02T06:06:51.724Z,100702.91
2023-05-02T06:09:57.414Z,100705.28
2023-05-02T06:13:00.405Z,100715.19
2023-05-02T06:16:03.771Z,100713.31
2023-05-02T06:19:06.505Z,100723.81
2023-05-02T06:22:13.268Z,100718.00
2023-05-02T06:25:16.140Z,100723.47
2023-05-02T06:28:18.825Z,100723.22
2023-05-02T06:31:21.593Z,100730.25
2023-05-02T06:34:24.503Z,100725.28
2023-05-02T06:37:28.680Z,100714.97
2023-05-02T06:40:31.388Z,100713.72
2023-05-02T06:43:34.219Z,100713.31
2023-05-02T06:46:36.971Z,100722.28
2023-05-02T06:49:39.795Z,100721.16
2023-05-02T06:52:43.843Z,100725.44
2023-05-02T06:55:48.514Z,100726.63
2023-05-02T06:58:51.277Z,100718.38
2023-05-02T07:01:53.957Z,100732.28
2023-05-02T07:04:56.821Z,100731.53
2023-05-02T07:08:00.936Z,100731.81
2023-05-02T07:11:04.129Z,100718.13
2023-05-02T07:14:06.770Z,100738.63
2023-05-02T07:17:09.938Z,100726.81
2023-05-02T07:20:13.172Z,100739.78
2023-05-02T07:23:17.251Z,100735.03
2023-05-02T07:26:20.286Z,100748.28
2023-05-02T07:29:23.125Z,100739.91
2023-05-02T07:32:26.481Z,100743.88
2023-05-02T07:35:29.743Z,100741.00
2023-05-02T07:38:33.946Z,100750.03
2023-05-02T07:41:39.785Z,100741.59
2023-05-02T07:44:42.552Z,100742.78
2023-05-02T07:47:46.513Z,100734.88
2023-05-02T07:50:49.213Z,100707.63
2023-05-02T07:53:55.749Z,100739.31
2023-05-02T07:57:02.309Z,100733.00
2023-05-02T08:00:10.314Z,100727.81
2023-05-02T08:03:13.605Z,100733.19
2023-05-02T08:06:16.655Z,100727.06
2023-05-02T08:09:20.927Z,100739.63
2023-05-02T08:12:23.776Z,100731.47
2023-05-02T08:15:26.626Z,100734.78
2023-05-02T08:18:29.372Z,100715.09
2023-05-02T08:21:32.433Z,100735.72
2023-05-02T08:24:36.514Z,100737.63
2023-05-02T08:27:39.216Z,100740.03
2023-05-02T08:30:42.216Z,100758.47
2023-05-02T08:33:45.121Z,100752.34
2023-05-02T08:36:48.579Z,100746.97
2023-05-02T08:39:52.963Z,100753.63
2023-05-02T08:43:05.651Z,100748.56
2023-05-02T08:46:08.940Z,100750.50
2023-05-02T08:49:12.176Z,100744.94
2023-05-02T08:52:17.120Z,100758.88
2023-05-02T08:55:27.718Z,100753.28
2023-05-02T08:58:30.800Z,100763.19
2023-05-02T09:01:36.593Z,100763.19
2023-05-02T09:04:42.537Z,100763.50
2023-05-02T09:07:47.575Z,100770.69
2023-05-02T09:10:52.049Z,100776.88
2023-05-02T09:13:54.726Z,100777.19
2023-05-02T09:17:01.066Z,100788.84
2023-05-02T09:20:04.095Z,100790.94
2023-05-02T09:23:07.000Z,100798.53
2023-05-02T09:26:19.255Z,100793.50
2023-05-02T09:29:22.722Z,100801.13
2023-05-02T09:32:46.078Z,100802.66
2023-05-02T09:35:55.389Z,100783.94
2023-05-02T09:39:11.255Z,100791.66
2023-05-02T09:42:32.689Z,100801.31
2023-05-02T09:45:38.594Z,100809.13
2023-05-02T09:48:56.065Z,100820.44
2023-05-02T09:52:11.152Z,100801.03
2023-05-02T09:55:23.181Z,100821.41
2023-05-02T09:58:27.307Z,100812.66
2023-05-02T10:01:30.307Z,100807.19
2023-05-02T10:04:34.908Z,100803.81
2023-05-02T10:07:38.508Z,100799.75
2023-05-02T10:10:44.884Z,100793.16
2023-05-02T10:13:49.620Z,100799.22
2023-05-02T10:17:00.984Z,100808.16
2023-05-02T10:20:07.450Z,100808.78
2023-05-02T10:23:11.053Z,100812.50
2023-05-02T10:26:18.498Z,100811.44
2023-05-02T10:29:23.552Z,100810.63
2023-05-02T10:32:29.509Z,100804.53
2023-05-02T10:35:33.509Z,100787.47
2023-05-02T10:38:37.603Z,100806.72
2023-05-02T10:41:42.396Z,100809.22
2023-05-02T10:44:46.651Z,100807.31
2023-05-02T10:47:49.675Z,100813.81
2023-05-02T10:50:54.258Z,100800.53
2023-05-02T10:54:20.385Z,100815.38
2023-05-02T10:57:25.563Z,100807.44
2023-05-02T11:00:31.171Z,100797.44
2023-05-02T11:03:56.629Z,100794.97
2023-05-02T11:07:19.971Z,100781.06
2023-05-02T11:10:27.955Z,100784.41
2023-05-02T11:13:51.537Z,100792.88
2023-05-02T11:17:11.710Z,100782.31
2023-05-02T11:20:30.119Z,100783.50
2023-05-02T11:23:33.671Z,100764.81
2023-05-02T11:26:36.422Z,100776.69
2023-05-02T11:29:55.034Z,100775.41
2023-05-02T11:33:19.943Z,100769.03
2023-05-02T11:36:30.206Z,100766.84
2023-05-02T11:39:32.991Z,100766.16
2023-05-02T11:42:35.707Z,100774.25
2023-05-02T11:45:39.179Z,100774.50
2023-05-02T11:48:43.431Z,100776.28
2023-05-02T11:51:46.539Z,100758.25
2023-05-02T11:54:49.477Z,100747.22
2023-05-02T11:57:52.538Z,100760.00
2023-05-02T12:00:55.292Z,100757.25
2023-05-02T12:04:07.756Z,100742.84
2023-05-02T12:07:12.240Z,100760.44
2023-05-02T12:10:15.816Z,100764.22
2023-05-02T12:13:19.208Z,100760.59
2023-05-02T12:16:22.005Z,100770.88
2023-05-02T12:19:26.340Z,100766.59
2023-05-02T12:22:29.783Z,100762.09
2023-05-02T12:25:32.655Z,100755.72
2023-05-02T12:28:49.315Z,100752.16
2023-05-02T12:31:52.812Z,100755.59
2023-05-02T12:34:57.228Z,100764.06
2023-05-02T12:38:10.831Z,100748.56
2023-05-02T12:41:13.688Z,100762.22
2023-05-02T12:44:16.834Z,100763.31
2023-05-02T12:47:21.056Z,100763.13
2023-05-02T12:50:38.850Z,100760.63
2023-05-02T12:53:43.766Z,100753.44
2023-05-02T12:56:46.538Z,100757.38
2023-05-02T12:59:49.200Z,100754.28
2023-05-02T13:02:53.072Z,100757.22
2023-05-02T13:05:57.205Z,100749.03
2023-05-02T13:09:00.235Z,100754.63
2023-05-02T13:12:04.530Z,100755.41
2023-05-02T13:15:09.139Z,100744.19
2023-05-02T13:18:12.270Z,100745.72
2023-05-02T13:21:16.449Z,100752.50
2023-05-02T13:24:19.160Z,100739.53
2023-05-02T13:27:24.602Z,100737.25
2023-05-02T13:30:27.245Z,100738.03
2023-05-02T13:33:29.959Z,100734.03
2023-05-02T13:36:34.014Z,100733.97
2023-05-02T13:39:36.885Z,100739.59
2023-05-02T13:42:39.543Z,100737.22
2023-05-02T13:45:54.435Z,100737.38
2023-05-02T13:49:00.728Z,100737.34
2023-05-02T13:52:05.643Z,100738.72
2023-05-02T13:55:09.262Z,100738.88
2023-05-02T13:58:12.147Z,100737.59
2023-05-02T14:01:16.537Z,100750.38
2023-05-02T14:04:24.819Z,100741.78
2023-05-02T14:07:29.489Z,100739.59
2023-05-02T14:10:32.305Z,100741.97
2023-05-02T14:13:35.212Z,100740.25
2023-05-02T14:16:37.975Z,100749.50
2023-05-02T14:19:40.722Z,100740.19
2023-05-02T14:22:45.144Z,100739.84
2023-05-02T14:25:48.568Z,100726.81
2023-05-02T14:28:51.321Z,100744.94
2023-05-02T14:31:54.046Z,100737.00
2023-05-02T14:34:56.739Z,100747.69
2023-05-02T14:38:01.188Z,100748.13
2023-05-02T14:41:03.867Z,100745.03
2023-05-02T14:44:06.593Z,100751.72
2023-05-02T14:47:09.482Z,100755.69
2023-05-02T14:50:12.392Z,100757.06
2023-05-02T14:53:26.483Z,100760.84
2023-05-02T14:56:29.217Z,100763.00
2023-05-02T14:59:32.360Z,100775.66
2023-05-02T15:02:35.614Z,100793.03
2023-05-02T15:05:38.504Z,100785.91
2023-05-02T15:08:44.208Z,100781.72
2023-05-02T15:11:47.108Z,100782.50
2023-05-02T15:14:49.871Z,100798.66
2023-05-02T15:17:53.025Z,100782.41
2023-05-02T15:20:56.080Z,100807.50
2023-05-02T15:24:00.200Z,100815.72
2023-05-02T15:27:04.272Z,100815.63
2023-05-02T15:30:08.217Z,100821.78
2023-05-02T15:33:10.943Z,100821.25
2023-05-02T15:36:14.346Z,100826.00
2023-05-02T15:39:19.239Z,100815.47
2023-05-02T15:42:22.117Z,100821.09
2023-05-02T15:45:24.892Z,100829.81
2023-05-02T15:48:28.938Z,100831.22
2023-05-02T15:51:31.648Z,100835.03
2023-05-02T15:54:37.311Z,100839.59
2023-05-02T15:57:40.076Z,100845.16
2023-05-02T16:00:42.936Z,100845.91
2023-05-02T16:03:45.744Z,100842.28
2023-05-02T16:06:48.570Z,100850.94
2023-05-02T16:09:52.650Z,100856.13
2023-05-02T16:12:56.557Z,100853.69
2023-05-02T16:15:59.269Z,100854.91
2023-05-02T16:19:02.227Z,100877.28
2023-05-02T16:22:04.996Z,100872.25
2023-05-02T16:25:09.785Z,100876.22
2023-05-02T16:28:12.523Z,100865.09
2023-05-02T16:31:15.268Z,100867.09
2023-05-02T16:34:18.123Z,100874.28
2023-05-02T16:37:21.616Z,100876.22
2023-05-02T16:40:26.859Z,100871.06
2023-05-02T16:43:31.134Z,100877.25
2023-05-02T16:46:34.118Z,100889.50
2023-05-02T16:49:36.924Z,100880.50
2023-05-02T16:52:39.676Z,100877.06
2023-05-02T16:55:44.100Z,100881.06
2023-05-02T16:58:46.964Z,100876.28
2023-05-02T17:01:50.041Z,100886.38
2023-05-02T17:04:52.771Z,100880.59
2023-05-02T17:07:55.471Z,100896.44
2023-05-02T17:10:59.570Z,100894.22
2023-05-02T17:14:02.382Z,100897.34
2023-05-02T17:17:05.125Z,100901.63
2023-05-02T17:20:08.638Z,100908.47
2023-05-02T17:23:11.332Z,100908.84
2023-05-02T17:26:15.685Z,100907.97
2023-05-02T17:29:18.560Z,100905.19
2023-05-02T17:32:21.694Z,100904.31
2023-05-02T17:35:24.408Z,100914.69
2023-05-02T17:38:27.775Z,100923.59
2023-05-02T17:41:31.874Z,100924.38
2023-05-02T17:44:36.108Z,100925.50
2023-05-02T17:47:38.986Z,100929.19
2023-05-02T17:50:42.197Z,100943.75
2023-05-02T17:53:44.965Z,100950.28
2023-05-02T17:56:49.963Z,100942.81
2023-05-02T17:59:56.554Z,100946.25
2023-05-02T18:03:00.109Z,100953.25
2023-05-02T18:06:03.746Z,100961.00
2023-05-02T18:09:07.363Z,100967.84
2023-05-02T18:12:11.436Z,100967.66
2023-05-02T18:15:14.213Z,100965.78
2023-05-02T18:18:17.001Z,100975.44
2023-05-02T18:21:23.322Z,100980.88
2023-05-02T18:24:26.046Z,100984.97
2023-05-02T18:27:30.331Z,100989.59
2023-05-02T18:30:37.131Z,100993.19
2023-05-02T18:33:43.131Z,100993.88
2023-05-02T18:36:46.203Z,101001.25
2023-05-02T18:39:49.139Z,101010.13
2023-05-02T18:42:53.344Z,101013.25
2023-05-02T18:45:56.094Z,101011.38
2023-05-02T18:48:58.820Z,101029.00
2023-05-02T18:52:02.975Z,101029.84
2023-05-02T18:55:06.490Z,101031.84
2023-05-02T18:58:11.927Z,101039.25
2023-05-02T19:01:15.324Z,101031.38
2023-05-02T19:04:18.509Z,101041.22
2023-05-02T19:07:21.274Z,101034.28
2023-05-02T19:10:24.044Z,101047.53
2023-05-02T19:13:28.124Z,101049.94
2023-05-02T19:16:31.685Z,101053.22
2023-05-02T19:19:34.617Z,101067.78
2023-05-02T19:22:38.553Z,101068.00
2023-05-02T19:25:41.494Z,101081.59
2023-05-02T19:28:46.643Z,101067.00
2023-05-02T19:31:49.515Z,101092.25
2023-05-02T19:34:52.342Z,101099.66
2023-05-02T19:37:55.058Z,101103.47
2023-05-02T19:40:57.806Z,101103.59
2023-05-02T19:44:02.046Z,101106.72
2023-05-02T19:47:05.265Z,101115.16
2023-05-02T19:50:09.518Z,101121.00
2023-05-02T19:53:12.865Z,101133.47
2023-05-02T19:56:15.669Z,101132.28
2023-05-02T19:59:19.717Z,101139.75
2023-05-02T20:02:22.802Z,101130.91
2023-05-02T20:05:25.553Z,101146.72
2023-05-02T20:08:28.954Z,101146.25
2023-05-02T20:11:32.977Z,101156.25
2023-05-02T20:14:36.988Z,101161.88
2023-05-02T20:17:39.948Z,101158.41
2023-05-02T20:20:42.687Z,101159.59
2023-05-02T20:23:45.336Z,101173.06
2023-05-02T20:26:48.016Z,101172.56
2023-05-02T20:29:52.054Z,101182.91
2023-05-02T20:32:55.788Z,101187.94
2023-05-02T20:35:58.727Z,101195.50
2023-05-02T20:39:01.545Z,101202.94
2023-05-02T20:42:05.546Z,101206.72
2023-05-02T20:45:12.613Z,101208.81
2023-05-02T20:48:17.771Z,101203.50
2023-05-02T20:51:21.091Z,101203.63
2023-05-02T20:54:24.100Z,101207.38
2023-05-02T20:57:26.777Z,101207.28
2023-05-02T21:00:31.579Z,101211.31
2023-05-02T21:03:36.707Z,101216.03
2023-05-02T21:06:39.585Z,101219.88
2023-05-02T21:09:42.318Z,101221.78
2023-05-02T21:12:44.996Z,101223.84
2023-05-02T21:15:49.539Z,101217.84
2023-05-02T21:18:53.771Z,101222.44
2023-05-02T21:21:56.471Z,101225.56
2023-05-02T21:24:59.208Z,101226.72
2023-05-02T21:28:01.998Z,101230.69
2023-05-02T21:31:07.279Z,101232.66
2023-05-02T21:34:10.020Z,101240.22
2023-05-02T21:37:12.788Z,101241.31
2023-05-02T21:40:15.514Z,101237.69
2023-05-02T21:43:18.427Z,101243.03
2023-05-02T21:46:22.526Z,101240.28
2023-05-02T21:49:25.298Z,101236.78
2023-05-02T21:52:28.149Z,101249.50
2023-05-02T21:55:31.412Z,101250.47
2023-05-02T21:58:34.107Z,101255.13
2023-05-02T22:01:38.145Z,101252.50
2023-05-02T22:04:41.270Z,101249.78
2023-05-02T22:07:43.994Z,101252.41
2023-05-02T22:10:46.706Z,101252.50
2023-05-02T22:13:49.588Z,101263.94
2023-05-02T22:16:58.401Z,101272.44
2023-05-02T22:20:02.690Z,101267.53
2023-05-02T22:23:05.583Z,101275.09
2023-05-02T22:26:08.329Z,101264.31
2023-05-02T22:29:11.189Z,101268.03
2023-05-02T22:32:15.373Z,101273.38
2023-05-02T22:35:18.214Z,101278.94
2023-05-02T22:38:21.214Z,101276.41
2023-05-02T22:41:23.966Z,101280.16
2023-05-02T22:44:26.721Z,101280.22
2023-05-02T22:47:30.986Z,101291.13
2023-05-02T22:50:33.917Z,101290.31
2023-05-02T22:53:36.612Z,101286.78
2023-05-02T22:56:39.427Z,101286.84
2023-05-02T22:59:42.144Z,101283.41
2023-05-02T23:02:46.346Z,101286.25
2023-05-02T23:05:49.658Z,101284.53
2023-05-02T23:08:52.394Z,101291.91
2023-05-02T23:11:55.099Z,101292.94
2023-05-02T23:14:57.990Z,101289.38
2023-05-02T23:18:02.333Z,101295.00
2023-05-02T23:21:05.662Z,101296.00
2023-05-02T23:24:09.559Z,101299.75
2023-05-02T23:27:12.262Z,101305.31
2023-05-02T23:30:15.147Z,101298.31
2023-05-02T23:33:19.310Z,101295.66
2023-05-02T23:36:22.333Z,101296.59
2023-05-02T23:39:25.059Z,101302.31
2023-05-02T23:42:29.066Z,101300.59
2023-05-02T23:45:31.765Z,101299.81
2023-05-02T23:48:35.988Z,101303.31
2023-05-02T23:51:38.796Z,101299.09
2023-05-02T23:54:41.521Z,101299.13
2023-05-02T23:57:44.416Z,101305.63
